createdAt,value
2023-03-04T00:00:09.218Z,100.00
2023-03-04T00:02:39.728Z,100.00
2023-03-04T00:05:08.471Z,100.00
2023-03-04T00:07:37.760Z,100.00
2023-03-04T00:10:06.518Z,100.00
2023-03-04T00:12:34.256Z,100.00
2023-03-04T00:15:02.066Z,100.00
2023-03-04T00:17:31.528Z,100.00
2023-03-04T00:19:59.587Z,100.00
2023-03-04T00:22:27.392Z,100.00
2023-03-04T00:24:58.219Z,100.00
2023-03-04T00:27:26.003Z,100.00
2023-03-04T00:29:54.304Z,100.00
2023-03-04T00:32:22.769Z,100.00
2023-03-04T00:34:50.835Z,100.00
2023-03-04T00:37:18.732Z,100.00
2023-03-04T00:39:46.462Z,100.00
2023-03-04T00:42:16.535Z,100.00
2023-03-04T00:44:44.633Z,100.00
2023-03-04T00:47:13.456Z,100.00
2023-03-04T00:49:41.224Z,100.00
2023-03-04T00:52:10.268Z,100.00
2023-03-04T00:54:38.065Z,100.00
2023-03-04T00:57:05.780Z,100.00
2023-03-04T00:59:34.818Z,100.00
2023-03-04T01:02:03.053Z,100.00
2023-03-04T01:04:31.299Z,100.00
2023-03-04T01:07:00.846Z,100.00
2023-03-04T01:09:30.295Z,100.00
2023-03-04T01:11:58.534Z,100.00
2023-03-04T01:14:26.577Z,100.00
2023-03-04T01:16:56.455Z,100.00
2023-03-04T01:19:24.696Z,100.00
2023-03-04T01:21:53.646Z,100.00
2023-03-04T01:24:23.297Z,100.00
2023-03-04T01:26:51.043Z,100.00
2023-03-04T01:29:18.821Z,100.00
2023-03-04T01:31:46.464Z,100.00
2023-03-04T01:34:15.885Z,100.00
2023-03-04T01:36:43.592Z,100.00
2023-03-04T01:39:12.832Z,100.00
2023-03-04T01:41:40.781Z,100.00
2023-03-04T01:44:11.938Z,100.00
2023-03-04T01:46:44.669Z,100.00
2023-03-04T01:49:17.082Z,100.00
2023-03-04T01:51:49.104Z,100.00
2023-03-04T01:54:16.896Z,100.00
2023-03-04T01:56:46.395Z,100.00
2023-03-04T01:59:17.047Z,100.00
2023-03-04T02:01:47.791Z,100.00
2023-03-04T02:04:18.506Z,100.00
2023-03-04T02:06:48.176Z,100.00
2023-03-04T02:09:17.187Z,100.00
2023-03-04T02:11:47.358Z,100.00
2023-03-04T02:14:17.097Z,100.00
2023-03-04T02:16:49.361Z,100.00
2023-03-04T02:19:31.242Z,100.00
2023-03-04T02:21:59.544Z,100.00
2023-03-04T02:24:33.359Z,100.00
2023-03-04T02:27:02.776Z,100.00
2023-03-04T02:29:30.729Z,100.00
2023-03-04T02:31:59.606Z,100.00
2023-03-04T02:34:31.124Z,100.00
2023-03-04T02:37:00.146Z,100.00
2023-03-04T02:39:34.161Z,100.00
2023-03-04T02:42:05.106Z,100.00
2023-03-04T02:44:36.912Z,100.00
2023-03-04T02:47:06.708Z,100.00
2023-03-04T02:49:35.518Z,100.00
2023-03-04T02:52:05.668Z,100.00
2023-03-04T02:54:34.236Z,100.00
2023-03-04T02:57:07.042Z,100.00
2023-03-04T02:59:37.468Z,100.00
2023-03-04T03:02:05.854Z,100.00
2023-03-04T03:04:35.572Z,100.00
2023-03-04T03:07:04.177Z,100.00
2023-03-04T03:09:32.718Z,100.00
2023-03-04T03:12:01.291Z,100.00
2023-03-04T03:14:32.664Z,100.00
2023-03-04T03:17:00.688Z,100.00
2023-03-04T03:19:28.496Z,100.00
2023-03-04T03:21:56.216Z,100.00
2023-03-04T03:24:24.684Z,100.00
2023-03-04T03:26:52.368Z,100.00
2023-03-04T03:29:21.196Z,100.00
2023-03-04T03:31:50.267Z,100.00
2023-03-04T03:34:20.132Z,100.00
2023-03-04T03:36:48.787Z,100.00
2023-03-04T03:39:16.699Z,100.00
2023-03-04T03:41:44.533Z,100.00
2023-03-04T03:44:12.208Z,100.00
2023-03-04T03:46:39.841Z,100.00
2023-03-04T03:49:09.130Z,100.00
2023-03-04T03:51:36.838Z,100.00
2023-03-04T03:54:04.635Z,100.00
2023-03-04T03:56:32.483Z,100.00
2023-03-04T03:59:01.124Z,100.00
2023-03-04T04:01:28.879Z,100.00
2023-03-04T04:03:56.854Z,100.00
2023-03-04T04:06:26.061Z,100.00
2023-03-04T04:08:53.853Z,100.00
2023-03-04T04:11:21.681Z,100.00
2023-03-04T04:13:50.136Z,100.00
2023-03-04T04:16:17.985Z,100.00
2023-03-04T04:18:45.879Z,100.00
2023-03-04T04:21:13.583Z,100.00
2023-03-04T04:23:42.703Z,100.00
2023-03-04T04:26:10.600Z,100.00
2023-03-04T04:28:38.279Z,100.00
2023-03-04T04:31:08.510Z,100.00
2023-03-04T04:33:36.776Z,100.00
2023-03-04T04:36:05.600Z,100.00
2023-03-04T04:38:33.399Z,100.00
2023-03-04T04:41:02.770Z,100.00
2023-03-04T04:43:30.476Z,100.00
2023-03-04T04:46:00.458Z,100.00
2023-03-04T04:48:28.600Z,100.00
2023-03-04T04:50:57.166Z,100.00
2023-03-04T04:53:25.321Z,100.00
2023-03-04T04:55:53.065Z,100.00
2023-03-04T04:58:34.817Z,100.00
2023-03-04T05:01:03.453Z,100.00
2023-03-04T05:03:31.466Z,100.00
2023-03-04T05:06:00.444Z,100.00
2023-03-04T05:08:28.835Z,100.00
2023-03-04T05:10:57.009Z,100.00
2023-03-04T05:13:27.063Z,100.00
2023-03-04T05:15:57.093Z,100.00
2023-03-04T05:18:27.997Z,100.00
2023-03-04T05:20:58.721Z,100.00
2023-03-04T05:23:28.033Z,100.00
2023-03-04T05:25:56.900Z,100.00
2023-03-04T05:28:26.605Z,100.00
2023-03-04T05:30:54.944Z,100.00
2023-03-04T05:33:23.010Z,100.00
2023-03-04T05:35:51.430Z,100.00
2023-03-04T05:38:21.023Z,100.00
2023-03-04T05:40:49.846Z,100.00
2023-03-04T05:43:17.697Z,100.00
2023-03-04T05:45:46.957Z,100.00
2023-03-04T05:48:14.652Z,100.00
2023-03-04T05:50:42.525Z,100.00
2023-03-04T05:53:10.633Z,100.00
2023-03-04T05:55:38.522Z,100.00
2023-03-04T05:58:06.857Z,100.00
2023-03-04T06:00:34.926Z,100.00
2023-03-04T06:03:04.149Z,100.00
2023-03-04T06:05:32.613Z,100.00
2023-03-04T06:08:00.334Z,100.00
2023-03-04T06:10:28.064Z,100.00
2023-03-04T06:12:55.790Z,100.00
2023-03-04T06:15:23.525Z,100.00
2023-03-04T06:17:51.238Z,100.00
2023-03-04T06:20:20.614Z,100.00
2023-03-04T06:22:48.349Z,100.00
2023-03-04T06:25:16.670Z,100.00
2023-03-04T06:27:44.353Z,100.00
2023-03-04T06:30:13.280Z,100.00
2023-03-04T06:32:44.369Z,100.00
2023-03-04T06:35:12.840Z,100.00
2023-03-04T06:37:42.051Z,100.00
2023-03-04T06:40:11.191Z,100.00
2023-03-04T06:42:39.979Z,100.00
2023-03-04T06:45:09.013Z,100.00
2023-03-04T06:47:36.846Z,100.00
2023-03-04T06:50:05.443Z,100.00
2023-03-04T06:52:33.972Z,100.00
2023-03-04T06:55:03.166Z,100.00
2023-03-04T06:57:30.873Z,100.00
2023-03-04T06:59:59.957Z,100.00
2023-03-04T07:02:27.732Z,100.00
2023-03-04T07:04:55.524Z,100.00
2023-03-04T07:07:23.401Z,100.00
2023-03-04T07:09:51.120Z,100.00
2023-03-04T07:12:20.600Z,100.00
2023-03-04T07:14:48.288Z,100.00
2023-03-04T07:17:15.968Z,100.00
2023-03-04T07:19:44.735Z,100.00
2023-03-04T07:22:12.857Z,100.00
2023-03-04T07:24:40.654Z,100.00
2023-03-04T07:27:08.315Z,100.00
2023-03-04T07:29:37.434Z,100.00
2023-03-04T07:32:08.801Z,100.00
2023-03-04T07:34:37.629Z,100.00
2023-03-04T07:37:05.587Z,100.00
2023-03-04T07:39:33.305Z,100.00
2023-03-04T07:42:00.980Z,100.00
2023-03-04T07:44:29.117Z,100.00
2023-03-04T07:46:59.322Z,100.00
2023-03-04T07:49:27.525Z,100.00
2023-03-04T07:51:55.186Z,100.00
2023-03-04T07:54:22.910Z,100.00
2023-03-04T07:56:50.620Z,100.00
2023-03-04T07:59:18.355Z,100.00
2023-03-04T08:01:46.465Z,100.00
2023-03-04T08:04:15.739Z,100.00
2023-03-04T08:06:45.260Z,100.00
2023-03-04T08:09:14.103Z,100.00
2023-03-04T08:11:42.354Z,100.00
2023-03-04T08:14:12.182Z,100.00
2023-03-04T08:16:40.712Z,100.00
2023-03-04T08:19:08.646Z,100.00
2023-03-04T08:21:37.922Z,100.00
2023-03-04T08:24:08.685Z,100.00
2023-03-04T08:26:41.300Z,100.00
2023-03-04T08:29:11.181Z,100.00
2023-03-04T08:31:39.846Z,100.00
2023-03-04T08:34:10.422Z,100.00
2023-03-04T08:36:39.800Z,100.00
2023-03-04T08:39:08.061Z,100.00
2023-03-04T08:41:35.750Z,100.00
2023-03-04T08:44:03.583Z,100.00
2023-03-04T08:46:31.970Z,100.00
2023-03-04T08:49:00.268Z,100.00
2023-03-04T08:51:28.295Z,100.00
2023-03-04T08:53:57.740Z,100.00
2023-03-04T08:56:25.992Z,100.00
2023-03-04T08:58:53.697Z,99.97
2023-03-04T09:01:21.548Z,99.66
2023-03-04T09:03:49.317Z,99.10
2023-03-04T09:06:18.420Z,98.47
2023-03-04T09:08:47.216Z,98.95
2023-03-04T09:11:16.973Z,99.08
2023-03-04T09:13:45.358Z,99.19
2023-03-04T09:16:15.692Z,98.42
2023-03-04T09:18:44.789Z,98.58
2023-03-04T09:21:12.683Z,99.41
2023-03-04T09:23:40.616Z,99.34
2023-03-04T09:26:18.557Z,97.04
2023-03-04T09:28:46.700Z,95.77
2023-03-04T09:31:15.410Z,96.32
2023-03-04T09:33:43.487Z,96.09
2023-03-04T09:36:13.517Z,96.22
2023-03-04T09:38:42.073Z,95.84
2023-03-04T09:41:11.768Z,96.50
2023-03-04T09:43:41.341Z,96.94
2023-03-04T09:46:13.190Z,96.74
2023-03-04T09:48:46.551Z,97.28
2023-03-04T09:51:22.246Z,96.13
2023-03-04T09:54:00.123Z,96.08
2023-03-04T09:56:29.167Z,95.57
2023-03-04T09:59:05.687Z,95.40
2023-03-04T10:01:40.590Z,95.01
2023-03-04T10:04:15.437Z,94.43
2023-03-04T10:06:43.782Z,95.09
2023-03-04T10:09:15.447Z,93.62
2023-03-04T10:11:46.811Z,93.52
2023-03-04T10:14:34.036Z,94.07
2023-03-04T10:17:08.133Z,93.30
2023-03-04T10:19:45.200Z,92.46
2023-03-04T10:22:22.045Z,93.01
2023-03-04T10:24:50.680Z,92.59
2023-03-04T10:27:20.746Z,93.09
2023-03-04T10:29:50.523Z,92.21
2023-03-04T10:32:20.777Z,92.22
2023-03-04T10:34:49.477Z,92.08
2023-03-04T10:37:17.165Z,91.06
2023-03-04T10:39:46.476Z,90.72
2023-03-04T10:42:29.774Z,90.57
2023-03-04T10:45:01.481Z,90.14
2023-03-04T10:47:32.788Z,91.17
2023-03-04T10:50:02.957Z,90.09
2023-03-04T10:52:33.237Z,88.83
2023-03-04T10:55:05.331Z,88.43
2023-03-04T10:57:37.357Z,88.10
2023-03-04T11:00:29.527Z,87.39
2023-03-04T11:03:29.045Z,87.18
2023-03-04T11:06:19.550Z,87.17
2023-03-04T11:08:55.048Z,85.70
2023-03-04T11:11:24.566Z,84.11
2023-03-04T11:13:54.250Z,85.45
2023-03-04T11:16:28.745Z,84.90
2023-03-04T11:19:00.918Z,85.16
2023-03-04T11:21:32.628Z,85.28
2023-03-04T11:24:03.237Z,85.95
2023-03-04T11:26:36.192Z,85.88
2023-03-04T11:29:14.157Z,85.45
2023-03-04T11:31:50.277Z,84.05
2023-03-04T11:34:30.294Z,84.64
2023-03-04T11:37:03.562Z,84.67
2023-03-04T11:39:37.185Z,83.96
2023-03-04T11:42:12.601Z,84.51
2023-03-04T11:44:41.442Z,84.42
2023-03-04T11:47:22.704Z,83.87
2023-03-04T11:50:08.608Z,84.66
2023-03-04T11:52:53.736Z,84.27
2023-03-04T11:55:38.927Z,83.77
2023-03-04T11:58:35.379Z,84.32
2023-03-04T12:01:10.190Z,84.61
2023-03-04T12:03:58.754Z,83.50
2023-03-04T12:06:36.409Z,83.74
2023-03-04T12:09:26.190Z,85.23
2023-03-04T12:12:05.023Z,84.85
2023-03-04T12:14:41.310Z,84.32
2023-03-04T12:17:34.277Z,85.09
2023-03-04T12:20:27.150Z,84.94
2023-03-04T12:23:03.437Z,84.57
2023-03-04T12:25:45.314Z,84.39
2023-03-04T12:28:52.235Z,84.83
2023-03-04T12:31:34.501Z,85.22
2023-03-04T12:34:34.367Z,84.96
2023-03-04T12:37:29.172Z,84.98
2023-03-04T12:40:17.297Z,84.49
2023-03-04T12:42:59.176Z,85.37
2023-03-04T12:45:31.895Z,85.43
2023-03-04T12:48:07.686Z,84.86
2023-03-04T12:50:43.072Z,84.42
2023-03-04T12:53:23.640Z,84.51
2023-03-04T12:55:53.409Z,84.32
2023-03-04T12:58:25.077Z,84.78
2023-03-04T13:01:01.280Z,84.49
2023-03-04T13:03:39.878Z,84.94
2023-03-04T13:06:17.867Z,86.54
2023-03-04T13:09:00.527Z,84.59
2023-03-04T13:11:53.689Z,85.33
2023-03-04T13:14:27.302Z,85.56
2023-03-04T13:16:57.211Z,86.34
2023-03-04T13:19:48.301Z,86.21
2023-03-04T13:22:33.503Z,85.06
2023-03-04T13:25:33.725Z,84.92
2023-03-04T13:28:26.472Z,84.85
2023-03-04T13:31:17.118Z,85.22
2023-03-04T13:34:01.346Z,84.60
2023-03-04T13:37:00.346Z,84.93
2023-03-04T13:39:37.308Z,83.42
2023-03-04T13:42:40.881Z,83.74
2023-03-04T13:45:33.949Z,85.26
2023-03-04T13:48:04.316Z,85.52
2023-03-04T13:50:41.360Z,84.80
2023-03-04T13:53:43.976Z,84.47
2023-03-04T13:56:22.073Z,85.10
2023-03-04T13:58:53.513Z,83.20
2023-03-04T14:01:26.572Z,81.99
2023-03-04T14:03:54.704Z,82.86
2023-03-04T14:06:24.232Z,82.44
2023-03-04T14:08:53.471Z,82.12
2023-03-04T14:11:29.150Z,81.99
2023-03-04T14:14:00.956Z,80.23
2023-03-04T14:16:30.534Z,80.26
2023-03-04T14:19:07.001Z,79.97
2023-03-04T14:21:37.660Z,80.41
2023-03-04T14:24:08.565Z,80.77
2023-03-04T14:26:37.119Z,80.86
2023-03-04T14:29:26.489Z,81.16
2023-03-04T14:31:56.495Z,80.81
2023-03-04T14:34:32.225Z,81.44
2023-03-04T14:37:00.229Z,82.41
2023-03-04T14:39:33.257Z,81.60
2023-03-04T14:42:09.916Z,82.79
2023-03-04T14:44:45.506Z,82.58
2023-03-04T14:47:20.775Z,82.56
2023-03-04T14:49:49.692Z,82.42
2023-03-04T14:52:36.090Z,80.90
2023-03-04T14:55:22.396Z,81.26
2023-03-04T14:57:58.688Z,81.64
2023-03-04T15:00:32.319Z,81.77
2023-03-04T15:03:07.516Z,81.65
2023-03-04T15:05:37.528Z,82.14
2023-03-04T15:08:20.005Z,82.42
2023-03-04T15:10:58.020Z,82.01
2023-03-04T15:13:42.197Z,82.21
2023-03-04T15:16:17.104Z,82.22
2023-03-04T15:18:57.585Z,82.83
2023-03-04T15:21:36.901Z,82.85
2023-03-04T15:24:07.225Z,82.02
2023-03-04T15:26:41.514Z,82.73
2023-03-04T15:29:15.796Z,82.40
2023-03-04T15:31:48.525Z,82.99
2023-03-04T15:34:18.621Z,84.04
2023-03-04T15:36:50.056Z,83.31
2023-03-04T15:39:21.588Z,83.14
2023-03-04T15:41:50.542Z,83.65
2023-03-04T15:44:19.353Z,84.24
2023-03-04T15:46:48.979Z,83.26
2023-03-04T15:49:17.491Z,83.81
2023-03-04T15:51:45.526Z,82.75
2023-03-04T15:54:14.919Z,82.42
2023-03-04T15:56:43.182Z,84.45
2023-03-04T15:59:14.841Z,83.77
2023-03-04T16:01:43.457Z,84.20
2023-03-04T16:04:17.184Z,84.84
2023-03-04T16:06:46.806Z,83.63
2023-03-04T16:09:17.464Z,84.86
2023-03-04T16:11:47.512Z,84.19
2023-03-04T16:14:17.047Z,85.01
2023-03-04T16:16:47.023Z,85.01
2023-03-04T16:19:17.835Z,84.78
2023-03-04T16:21:46.176Z,84.91
2023-03-04T16:24:18.831Z,84.50
2023-03-04T16:26:47.576Z,84.37
2023-03-04T16:29:17.200Z,83.75
2023-03-04T16:31:45.794Z,83.54
2023-03-04T16:34:16.319Z,84.14
2023-03-04T16:36:44.609Z,83.97
2023-03-04T16:39:21.281Z,84.70
2023-03-04T16:41:49.924Z,85.01
2023-03-04T16:44:18.699Z,84.83
2023-03-04T16:46:47.104Z,85.04
2023-03-04T16:49:16.970Z,84.77
2023-03-04T16:51:49.343Z,85.30
2023-03-04T16:54:25.490Z,85.07
2023-03-04T16:56:53.835Z,84.89
2023-03-04T16:59:22.120Z,84.61
2023-03-04T17:01:50.931Z,85.19
2023-03-04T17:04:20.866Z,84.42
2023-03-04T17:06:49.074Z,84.35
2023-03-04T17:09:18.675Z,84.08
2023-03-04T17:11:48.316Z,85.00
2023-03-04T17:14:17.393Z,84.50
2023-03-04T17:16:45.794Z,84.52
2023-03-04T17:19:14.513Z,85.64
2023-03-04T17:21:44.458Z,84.67
2023-03-04T17:24:13.123Z,85.61
2023-03-04T17:26:43.180Z,85.88
2023-03-04T17:29:13.136Z,85.98
2023-03-04T17:31:41.018Z,87.12
2023-03-04T17:34:08.878Z,87.70
2023-03-04T17:36:37.014Z,87.40
2023-03-04T17:39:07.079Z,87.81
2023-03-04T17:41:36.228Z,88.28
2023-03-04T17:44:05.830Z,88.54
2023-03-04T17:46:33.937Z,88.85
2023-03-04T17:49:02.057Z,88.68
2023-03-04T17:51:32.356Z,88.46
2023-03-04T17:54:01.888Z,88.89
2023-03-04T17:56:31.376Z,88.72
2023-03-04T17:59:00.735Z,88.76
2023-03-04T18:01:30.281Z,89.60
2023-03-04T18:03:58.043Z,89.05
2023-03-04T18:06:25.932Z,88.92
2023-03-04T18:08:54.285Z,89.49
2023-03-04T18:11:23.025Z,89.47
2023-03-04T18:13:54.873Z,90.04
2023-03-04T18:16:26.693Z,89.77
2023-03-04T18:18:55.276Z,89.88
2023-03-04T18:21:22.940Z,89.89
2023-03-04T18:23:51.044Z,89.99
2023-03-04T18:26:21.204Z,89.83
2023-03-04T18:28:48.946Z,89.27
2023-03-04T18:31:20.951Z,88.74
2023-03-04T18:33:48.951Z,88.16
2023-03-04T18:36:16.790Z,88.34
2023-03-04T18:38:44.737Z,88.03
2023-03-04T18:41:14.770Z,88.43
2023-03-04T18:43:43.296Z,88.49
2023-03-04T18:46:20.067Z,87.21
2023-03-04T18:48:54.874Z,87.39
2023-03-04T18:51:24.805Z,88.26
2023-03-04T18:53:53.518Z,87.54
2023-03-04T18:56:28.047Z,87.82
2023-03-04T18:59:39.550Z,87.93
2023-03-04T19:02:36.094Z,88.11
2023-03-04T19:05:14.149Z,87.61
2023-03-04T19:07:44.470Z,87.78
2023-03-04T19:10:14.462Z,88.50
2023-03-04T19:12:44.990Z,88.55
2023-03-04T19:15:14.368Z,89.10
2023-03-04T19:17:45.394Z,88.20
2023-03-04T19:20:16.823Z,87.95
2023-03-04T19:22:45.738Z,88.18
2023-03-04T19:25:13.929Z,88.93
2023-03-04T19:27:42.549Z,88.77
2023-03-04T19:30:11.764Z,88.81
2023-03-04T19:32:39.636Z,89.66
2023-03-04T19:35:09.791Z,89.10
2023-03-04T19:37:39.293Z,88.78
2023-03-04T19:40:11.596Z,88.77
2023-03-04T19:42:39.855Z,88.34
2023-03-04T19:45:11.066Z,88.98
2023-03-04T19:47:40.529Z,87.86
2023-03-04T19:50:11.723Z,88.11
2023-03-04T19:52:41.583Z,88.40
2023-03-04T19:55:12.672Z,87.92
2023-03-04T19:57:42.308Z,88.89
2023-03-04T20:00:15.146Z,88.36
2023-03-04T20:02:45.762Z,88.18
2023-03-04T20:05:14.275Z,87.84
2023-03-04T20:07:44.922Z,88.36
2023-03-04T20:10:14.513Z,88.11
2023-03-04T20:12:42.970Z,89.32
2023-03-04T20:15:12.042Z,88.40
2023-03-04T20:17:39.995Z,89.45
2023-03-04T20:20:10.870Z,89.22
2023-03-04T20:22:39.334Z,89.45
2023-03-04T20:25:09.858Z,88.56
2023-03-04T20:27:37.844Z,88.69
2023-03-04T20:30:11.354Z,89.49
2023-03-04T20:32:39.869Z,89.62
2023-03-04T20:35:14.108Z,89.49
2023-03-04T20:37:42.823Z,89.56
2023-03-04T20:40:13.950Z,89.73
2023-03-04T20:42:43.262Z,90.12
2023-03-04T20:45:12.786Z,88.97
2023-03-04T20:47:40.803Z,89.21
2023-03-04T20:50:09.944Z,89.40
2023-03-04T20:52:38.226Z,88.50
2023-03-04T20:55:07.167Z,88.48
2023-03-04T20:57:36.625Z,90.04
2023-03-04T21:00:06.637Z,89.38
2023-03-04T21:02:35.479Z,89.73
2023-03-04T21:05:04.220Z,89.27
2023-03-04T21:07:34.007Z,89.90
2023-03-04T21:10:02.974Z,89.64
2023-03-04T21:12:31.700Z,89.90
2023-03-04T21:15:01.412Z,88.94
2023-03-04T21:17:29.690Z,89.33
2023-03-04T21:19:57.814Z,89.19
2023-03-04T21:22:26.842Z,89.13
2023-03-04T21:24:55.973Z,89.16
2023-03-04T21:27:24.806Z,90.34
2023-03-04T21:29:52.947Z,89.68
2023-03-04T21:32:26.159Z,89.93
2023-03-04T21:34:55.656Z,90.30
2023-03-04T21:37:25.510Z,89.66
2023-03-04T21:39:53.622Z,89.20
2023-03-04T21:42:22.090Z,90.09
2023-03-04T21:44:51.477Z,89.99
2023-03-04T21:47:20.540Z,89.78
2023-03-04T21:49:50.166Z,89.64
2023-03-04T21:52:19.344Z,90.16
2023-03-04T21:54:47.898Z,91.04
2023-03-04T21:57:15.761Z,91.86
2023-03-04T21:59:44.034Z,92.77
2023-03-04T22:02:16.958Z,92.93
2023-03-04T22:04:44.986Z,93.18
2023-03-04T22:07:14.630Z,93.59
2023-03-04T22:09:43.794Z,94.57
2023-03-04T22:12:12.021Z,95.25
2023-03-04T22:14:40.285Z,94.97
2023-03-04T22:17:09.028Z,95.27
2023-03-04T22:19:37.849Z,94.71
2023-03-04T22:22:06.851Z,95.10
2023-03-04T22:24:37.754Z,95.46
2023-03-04T22:27:06.682Z,95.58
2023-03-04T22:29:35.054Z,95.85
2023-03-04T22:32:03.196Z,96.04
2023-03-04T22:34:31.190Z,95.97
2023-03-04T22:36:59.189Z,95.55
2023-03-04T22:39:27.120Z,95.23
2023-03-04T22:41:56.450Z,96.12
2023-03-04T22:44:24.373Z,96.28
2023-03-04T22:46:52.277Z,96.54
2023-03-04T22:49:20.342Z,96.37
2023-03-04T22:51:48.415Z,96.40
2023-03-04T22:54:18.941Z,96.95
2023-03-04T22:56:46.916Z,96.67
2023-03-04T22:59:16.483Z,96.45
2023-03-04T23:01:44.186Z,96.84
2023-03-04T23:04:11.969Z,96.13
2023-03-04T23:06:40.231Z,96.28
2023-03-04T23:09:09.199Z,96.22
2023-03-04T23:11:37.253Z,96.47
2023-03-04T23:14:08.252Z,96.63
2023-03-04T23:16:42.288Z,97.62
2023-03-04T23:19:13.390Z,97.79
2023-03-04T23:21:43.227Z,97.55
2023-03-04T23:24:12.620Z,98.29
2023-03-04T23:26:42.810Z,98.90
2023-03-04T23:29:14.455Z,98.62
2023-03-04T23:31:44.254Z,98.49
2023-03-04T23:34:12.743Z,98.48
2023-03-04T23:36:41.152Z,100.00
2023-03-04T23:39:10.079Z,99.84
2023-03-04T23:41:38.613Z,100.00
2023-03-04T23:44:08.733Z,100.00
2023-03-04T23:46:37.684Z,98.94
2023-03-04T23:49:08.874Z,99.55
2023-03-04T23:51:37.235Z,99.49
2023-03-04T23:54:05.862Z,99.93
2023-03-04T23:56:34.716Z,99.72
2023-03-04T23:59:03.859Z,100.00
